createdAt,value
2016-11-28T00:00:53.733Z,0
2016-11-28T00:01:53.726Z,0
2016-11-28T00:02:53.707Z,0
2016-11-28T00:03:54.587Z,0
2016-11-28T00:04:53.813Z,0
2016-11-28T00:05:54.209Z,0
2016-11-28T00:06:53.906Z,0
2016-11-28T00:07:55.270Z,0
2016-11-28T00:08:54.112Z,0
2016-11-28T00:09:53.970Z,0
2016-11-28T00:10:54.815Z,0
2016-11-28T00:11:53.944Z,0
2016-11-28T00:12:54.550Z,0
2016-11-28T00:13:53.725Z,0
2016-11-28T00:14:54.617Z,0
2016-11-28T00:15:53.908Z,0
2016-11-28T00:16:54.306Z,0
2016-11-28T00:17:53.721Z,0
2016-11-28T00:18:53.698Z,0
2016-11-28T00:19:53.961Z,0
2016-11-28T00:20:54.839Z,0
2016-11-28T00:21:54.128Z,0
2016-11-28T00:22:53.759Z,0
2016-11-28T00:23:55.325Z,0
2016-11-28T00:24:53.839Z,0
2016-11-28T00:25:54.039Z,0
2016-11-28T00:26:55.138Z,0
2016-11-28T00:27:54.021Z,0
2016-11-28T00:28:53.855Z,0
2016-11-28T00:29:54.678Z,0
2016-11-28T00:30:53.957Z,0
2016-11-28T00:31:53.920Z,0
2016-11-28T00:32:53.799Z,0
2016-11-28T00:33:53.993Z,0
2016-11-28T00:34:53.852Z,0
2016-11-28T00:35:53.731Z,0
2016-11-28T00:36:53.937Z,0
2016-11-28T00:37:54.488Z,0
2016-11-28T00:38:54.386Z,0
2016-11-28T00:39:53.923Z,0
2016-11-28T00:40:53.980Z,0
2016-11-28T00:41:54.285Z,0
2016-11-28T00:42:53.865Z,0
2016-11-28T00:43:54.882Z,0
2016-11-28T00:44:53.848Z,0
2016-11-28T00:45:53.842Z,0
2016-11-28T00:46:53.722Z,0
2016-11-28T00:47:53.719Z,0
2016-11-28T00:48:53.717Z,0
2016-11-28T00:49:53.732Z,0
2016-11-28T00:50:53.736Z,0
2016-11-28T00:51:53.841Z,0
2016-11-28T00:52:53.769Z,0
2016-11-28T00:53:53.802Z,0
2016-11-28T00:54:54.241Z,0
2016-11-28T00:55:54.135Z,0
2016-11-28T00:56:53.775Z,0
2016-11-28T00:57:53.984Z,0
2016-11-28T00:58:54.084Z,0
2016-11-28T00:59:53.794Z,0
2016-11-28T01:00:53.824Z,0
2016-11-28T01:01:53.767Z,0
2016-11-28T01:02:53.929Z,0
2016-11-28T01:03:53.821Z,0
2016-11-28T01:04:53.992Z,0
2016-11-28T01:05:53.883Z,0
2016-11-28T01:06:53.735Z,0
2016-11-28T01:07:54.686Z,0
2016-11-28T01:08:53.911Z,0
2016-11-28T01:09:53.945Z,0
2016-11-28T01:10:53.826Z,0
2016-11-28T01:11:54.508Z,0
2016-11-28T01:12:53.764Z,0
2016-11-28T01:13:54.075Z,0
2016-11-28T01:14:54.381Z,0
2016-11-28T01:15:54.022Z,0
2016-11-28T01:16:54.026Z,0
2016-11-28T01:17:53.898Z,0
2016-11-28T01:18:54.055Z,0
2016-11-28T01:19:53.728Z,0
2016-11-28T01:20:54.267Z,0
2016-11-28T01:21:53.936Z,0
2016-11-28T01:22:54.144Z,0
2016-11-28T01:23:53.941Z,0
2016-11-28T01:24:54.208Z,0
2016-11-28T01:25:54.648Z,0
2016-11-28T01:26:53.741Z,0
2016-11-28T01:27:53.851Z,0
2016-11-28T01:28:53.745Z,0
2016-11-28T01:29:53.799Z,0
2016-11-28T01:30:53.777Z,0
2016-11-28T01:31:54.596Z,0
2016-11-28T01:32:54.694Z,0
2016-11-28T01:33:54.228Z,0
2016-11-28T01:34:53.791Z,0
2016-11-28T01:35:53.722Z,0
2016-11-28T01:36:54.198Z,0
2016-11-28T01:37:54.401Z,0
2016-11-28T01:38:54.612Z,0
2016-11-28T01:39:53.764Z,0
2016-11-28T01:40:53.892Z,0
2016-11-28T01:41:53.802Z,0
2016-11-28T01:42:53.888Z,0
2016-11-28T01:43:53.738Z,0
2016-11-28T01:44:53.944Z,0
2016-11-28T01:45:54.682Z,0
2016-11-28T01:46:53.741Z,0
2016-11-28T01:47:53.751Z,0
2016-11-28T01:48:53.765Z,0
2016-11-28T01:49:53.817Z,0
2016-11-28T01:50:54.525Z,0
2016-11-28T01:51:53.757Z,0
2016-11-28T01:52:53.830Z,0
2016-11-28T01:53:53.765Z,0
2016-11-28T01:54:53.800Z,0
2016-11-28T01:55:53.757Z,0
2016-11-28T01:56:54.489Z,0
2016-11-28T01:57:53.855Z,0
2016-11-28T01:58:53.769Z,0
2016-11-28T01:59:54.960Z,0
2016-11-28T02:00:53.760Z,0
2016-11-28T02:01:53.803Z,0
2016-11-28T02:02:53.897Z,0
2016-11-28T02:03:54.886Z,0
2016-11-28T02:04:53.918Z,0
2016-11-28T02:05:54.022Z,0
2016-11-28T02:06:54.636Z,0
2016-11-28T02:07:53.922Z,0
2016-11-28T02:08:54.278Z,0
2016-11-28T02:09:54.618Z,0
2016-11-28T02:10:54.134Z,0
2016-11-28T02:11:53.792Z,0
2016-11-28T02:12:54.019Z,0
2016-11-28T02:13:53.810Z,0
2016-11-28T02:14:53.784Z,0
2016-11-28T02:15:53.742Z,0
2016-11-28T02:16:53.852Z,0
2016-11-28T02:17:54.134Z,0
2016-11-28T02:18:53.808Z,0
2016-11-28T02:19:54.136Z,0
2016-11-28T02:20:54.243Z,0
2016-11-28T02:21:53.872Z,0
2016-11-28T02:22:53.799Z,0
2016-11-28T02:23:53.822Z,0
2016-11-28T02:24:54.091Z,0
2016-11-28T02:25:54.021Z,0
2016-11-28T02:26:53.835Z,0
2016-11-28T02:27:53.773Z,0
2016-11-28T02:28:53.789Z,0
2016-11-28T02:29:53.798Z,0
2016-11-28T02:30:53.758Z,0
2016-11-28T02:31:53.761Z,0
2016-11-28T02:32:54.029Z,0
2016-11-28T02:33:53.746Z,0
2016-11-28T02:34:53.784Z,0
2016-11-28T02:35:53.892Z,0
2016-11-28T02:36:53.899Z,0
2016-11-28T02:37:54.065Z,0
2016-11-28T02:38:53.871Z,0
2016-11-28T02:39:53.795Z,0
2016-11-28T02:40:53.925Z,0
2016-11-28T02:41:53.843Z,0
2016-11-28T02:42:53.904Z,0
2016-11-28T02:43:53.803Z,0
2016-11-28T02:44:53.800Z,0
2016-11-28T02:45:53.808Z,0
2016-11-28T02:46:54.062Z,0
2016-11-28T02:47:54.758Z,0
2016-11-28T02:48:54.216Z,0
2016-11-28T02:49:53.813Z,0
2016-11-28T02:50:54.462Z,0
2016-11-28T02:51:53.915Z,0
2016-11-28T02:52:53.902Z,0
2016-11-28T02:53:53.781Z,0
2016-11-28T02:54:53.909Z,0
2016-11-28T02:55:53.893Z,0
2016-11-28T02:56:53.886Z,0
2016-11-28T02:57:53.805Z,0
2016-11-28T02:58:53.820Z,0
2016-11-28T02:59:53.827Z,0
2016-11-28T03:00:53.795Z,0
2016-11-28T03:01:53.814Z,0
2016-11-28T03:02:53.798Z,0
2016-11-28T03:03:53.917Z,0
2016-11-28T03:04:53.858Z,0
2016-11-28T03:05:53.820Z,0
2016-11-28T03:06:53.824Z,0
2016-11-28T03:07:54.446Z,0
2016-11-28T03:08:53.986Z,0
2016-11-28T03:09:53.974Z,0
2016-11-28T03:10:53.867Z,0
2016-11-28T03:11:53.951Z,0
2016-11-28T03:12:55.102Z,0
2016-11-28T03:13:53.920Z,0
2016-11-28T03:14:53.922Z,0
2016-11-28T03:15:53.862Z,0
2016-11-28T03:16:53.818Z,0
2016-11-28T03:17:54.643Z,0
2016-11-28T03:18:53.914Z,0
2016-11-28T03:19:54.094Z,0
2016-11-28T03:20:53.999Z,0
2016-11-28T03:21:54.024Z,0
2016-11-28T03:22:53.878Z,0
2016-11-28T03:23:53.999Z,0
2016-11-28T03:24:53.816Z,0
2016-11-28T03:25:53.853Z,0
2016-11-28T03:26:53.835Z,0
2016-11-28T03:27:53.848Z,0
2016-11-28T03:28:53.815Z,0
2016-11-28T03:29:53.964Z,0
2016-11-28T03:30:53.905Z,0
2016-11-28T03:31:53.827Z,0
2016-11-28T03:32:53.874Z,0
2016-11-28T03:33:53.814Z,0
2016-11-28T03:34:54.014Z,0
2016-11-28T03:35:54.116Z,0
2016-11-28T03:36:53.897Z,0
2016-11-28T03:37:53.843Z,0
2016-11-28T03:38:53.952Z,0
2016-11-28T03:39:53.816Z,0
2016-11-28T03:40:53.863Z,0
2016-11-28T03:41:53.871Z,0
2016-11-28T03:42:53.953Z,0
2016-11-28T03:43:53.880Z,0
2016-11-28T03:44:53.929Z,0
2016-11-28T03:45:55.767Z,0
2016-11-28T03:46:55.495Z,0
2016-11-28T03:47:53.892Z,0
2016-11-28T03:48:55.243Z,0
2016-11-28T03:49:54.321Z,0
2016-11-28T03:50:55.725Z,0
2016-11-28T03:51:54.889Z,0
2016-11-28T03:52:54.944Z,0
2016-11-28T03:53:54.110Z,0
2016-11-28T03:54:54.235Z,0
2016-11-28T03:55:53.814Z,0
2016-11-28T03:56:54.832Z,0
2016-11-28T03:57:54.238Z,0
2016-11-28T03:58:53.884Z,0
2016-11-28T03:59:53.825Z,0
2016-11-28T04:00:53.824Z,0
2016-11-28T04:01:54.345Z,0
2016-11-28T04:02:53.982Z,0
2016-11-28T04:03:53.992Z,0
2016-11-28T04:04:53.878Z,0
2016-11-28T04:05:53.953Z,0
2016-11-28T04:06:53.849Z,0
2016-11-28T04:07:54.129Z,0
2016-11-28T04:08:53.993Z,0
2016-11-28T04:09:53.844Z,0
2016-11-28T04:10:53.899Z,0
2016-11-28T04:11:54.057Z,0
2016-11-28T04:12:53.887Z,0
2016-11-28T04:13:53.835Z,0
2016-11-28T04:14:54.129Z,0
2016-11-28T04:15:53.853Z,0
2016-11-28T04:16:53.819Z,0
2016-11-28T04:17:54.956Z,0
2016-11-28T04:18:53.982Z,0
2016-11-28T04:19:53.961Z,0
2016-11-28T04:20:54.025Z,0
2016-11-28T04:21:53.836Z,0
2016-11-28T04:22:53.894Z,0
2016-11-28T04:23:54.181Z,0
2016-11-28T04:24:53.950Z,0
2016-11-28T04:25:53.982Z,0
2016-11-28T04:26:54.218Z,0
2016-11-28T04:27:53.930Z,0
2016-11-28T04:28:53.892Z,0
2016-11-28T04:29:53.923Z,0
2016-11-28T04:30:55.327Z,0
2016-11-28T04:31:54.008Z,0
2016-11-28T04:32:53.903Z,0
2016-11-28T04:33:54.066Z,0
2016-11-28T04:34:54.334Z,0
2016-11-28T04:35:53.863Z,0
2016-11-28T04:36:54.085Z,0
2016-11-28T04:37:53.845Z,0
2016-11-28T04:38:54.107Z,0
2016-11-28T04:39:54.188Z,0
2016-11-28T04:40:54.029Z,0
2016-11-28T04:41:54.078Z,0
2016-11-28T04:42:53.860Z,0
2016-11-28T04:43:54.027Z,0
2016-11-28T04:44:53.939Z,0
2016-11-28T04:45:53.936Z,0
2016-11-28T04:46:54.850Z,0
2016-11-28T04:47:53.873Z,0
2016-11-28T04:48:54.660Z,0
2016-11-28T04:49:54.046Z,0
2016-11-28T04:50:53.932Z,0
2016-11-28T04:51:54.055Z,0
2016-11-28T04:52:54.028Z,0
2016-11-28T04:53:54.181Z,0
2016-11-28T04:54:53.868Z,0
2016-11-28T04:55:53.870Z,0
2016-11-28T04:56:54.195Z,0
2016-11-28T04:57:53.827Z,0
2016-11-28T04:58:54.158Z,0
2016-11-28T04:59:54.073Z,0
2016-11-28T05:00:55.179Z,0
2016-11-28T05:01:53.897Z,0
2016-11-28T05:02:53.900Z,0
2016-11-28T05:03:53.888Z,0
2016-11-28T05:04:54.170Z,0
2016-11-28T05:05:53.926Z,0
2016-11-28T05:06:54.039Z,0
2016-11-28T05:07:55.047Z,0
2016-11-28T05:08:53.938Z,0
2016-11-28T05:09:54.326Z,0
2016-11-28T05:10:54.135Z,0
2016-11-28T05:11:53.966Z,0
2016-11-28T05:12:53.957Z,0
2016-11-28T05:13:53.916Z,0
2016-11-28T05:14:54.137Z,0
2016-11-28T05:15:53.883Z,0
2016-11-28T05:16:54.095Z,0
2016-11-28T05:17:53.900Z,0
2016-11-28T05:18:54.079Z,0
2016-11-28T05:19:53.974Z,0
2016-11-28T05:20:53.924Z,0
2016-11-28T05:21:54.163Z,0
2016-11-28T05:22:53.863Z,0
2016-11-28T05:23:53.914Z,0
2016-11-28T05:24:53.935Z,0
2016-11-28T05:25:53.971Z,0
2016-11-28T05:26:53.871Z,0
2016-11-28T05:27:53.949Z,0
2016-11-28T05:28:54.014Z,0
2016-11-28T05:29:54.126Z,0
2016-11-28T05:30:53.922Z,0
2016-11-28T05:31:53.961Z,0
2016-11-28T05:32:53.927Z,0
2016-11-28T05:33:53.971Z,0
2016-11-28T05:34:53.951Z,0
2016-11-28T05:35:54.744Z,0
2016-11-28T05:36:54.126Z,0
2016-11-28T05:37:54.233Z,0
2016-11-28T05:38:53.899Z,0
2016-11-28T05:39:54.113Z,0
2016-11-28T05:40:53.931Z,0
2016-11-28T05:41:54.018Z,0
2016-11-28T05:42:54.065Z,0
2016-11-28T05:43:54.068Z,0
2016-11-28T05:44:53.958Z,0
2016-11-28T05:45:53.967Z,0
2016-11-28T05:46:53.911Z,0
2016-11-28T05:47:54.016Z,0
2016-11-28T05:48:54.049Z,0
2016-11-28T05:49:54.010Z,0
2016-11-28T05:50:53.934Z,0
2016-11-28T05:51:53.897Z,0
2016-11-28T05:52:54.033Z,0
2016-11-28T05:53:54.036Z,0
2016-11-28T05:54:53.943Z,0
2016-11-28T05:55:53.911Z,0
2016-11-28T05:56:53.962Z,0
2016-11-28T05:57:53.878Z,0
2016-11-28T05:58:53.878Z,0
2016-11-28T05:59:53.927Z,0
2016-11-28T06:00:53.890Z,0
2016-11-28T06:01:53.908Z,0
2016-11-28T06:02:53.941Z,0
2016-11-28T06:03:53.936Z,0
2016-11-28T06:04:53.962Z,0
2016-11-28T06:05:53.907Z,0
2016-11-28T06:06:53.899Z,0
2016-11-28T06:07:53.928Z,0
2016-11-28T06:08:53.870Z,0
2016-11-28T06:09:53.976Z,0
2016-11-28T06:10:53.941Z,0
2016-11-28T06:11:53.889Z,0
2016-11-28T06:12:53.922Z,0
2016-11-28T06:13:53.929Z,0
2016-11-28T06:14:53.918Z,0
2016-11-28T06:15:53.986Z,0
2016-11-28T06:16:53.949Z,0
2016-11-28T06:17:53.896Z,0
2016-11-28T06:18:53.984Z,0
2016-11-28T06:19:53.952Z,0
2016-11-28T06:20:53.957Z,0
2016-11-28T06:21:53.928Z,0
2016-11-28T06:22:53.928Z,0
2016-11-28T06:23:53.945Z,0
2016-11-28T06:24:53.928Z,0
2016-11-28T06:25:53.967Z,0
2016-11-28T06:26:53.964Z,0
2016-11-28T06:27:53.934Z,0
2016-11-28T06:28:53.906Z,0
2016-11-28T06:29:53.963Z,0
2016-11-28T06:30:53.940Z,0
2016-11-28T06:31:53.938Z,0
2016-11-28T06:32:53.930Z,0
2016-11-28T06:33:53.935Z,0
2016-11-28T06:34:53.982Z,0
2016-11-28T06:35:53.975Z,0
2016-11-28T06:36:53.946Z,0
2016-11-28T06:37:53.945Z,0
2016-11-28T06:38:53.969Z,0
2016-11-28T06:39:53.959Z,0
2016-11-28T06:40:53.927Z,0
2016-11-28T06:41:53.981Z,0
2016-11-28T06:42:53.985Z,0
2016-11-28T06:43:53.938Z,0
2016-11-28T06:44:53.983Z,0
2016-11-28T06:45:53.943Z,0
2016-11-28T06:46:54.215Z,0
2016-11-28T06:47:53.966Z,0
2016-11-28T06:48:53.924Z,0
2016-11-28T06:49:53.959Z,0
2016-11-28T06:50:53.963Z,0
2016-11-28T06:51:53.926Z,0
2016-11-28T06:52:53.977Z,0
2016-11-28T06:53:53.953Z,0
2016-11-28T06:54:53.957Z,0
2016-11-28T06:55:53.944Z,0
2016-11-28T06:56:53.942Z,0
2016-11-28T06:57:53.978Z,0
2016-11-28T06:58:53.952Z,0
2016-11-28T06:59:53.960Z,0
2016-11-28T07:00:53.928Z,0
2016-11-28T07:01:54.010Z,0
2016-11-28T07:02:54.017Z,0
2016-11-28T07:03:53.979Z,0
2016-11-28T07:04:53.967Z,0
2016-11-28T07:05:53.939Z,5
2016-11-28T07:06:53.954Z,5
2016-11-28T07:07:53.986Z,5
2016-11-28T07:08:53.955Z,5
2016-11-28T07:09:53.944Z,5
2016-11-28T07:10:53.994Z,5
2016-11-28T07:11:53.963Z,5
2016-11-28T07:12:53.964Z,5
2016-11-28T07:13:54.007Z,5
2016-11-28T07:14:54.282Z,10
2016-11-28T07:15:54.009Z,10
2016-11-28T07:16:54.026Z,10
2016-11-28T07:17:54.001Z,10
2016-11-28T07:18:54.172Z,10
2016-11-28T07:19:54.049Z,10
2016-11-28T07:20:53.975Z,10
2016-11-28T07:21:54.036Z,15
2016-11-28T07:22:53.974Z,15
2016-11-28T07:23:53.929Z,15
2016-11-28T07:24:54.104Z,15
2016-11-28T07:25:54.038Z,15
2016-11-28T07:26:53.982Z,15
2016-11-28T07:27:54.182Z,20
2016-11-28T07:28:53.964Z,20
2016-11-28T07:29:54.060Z,20
2016-11-28T07:30:53.952Z,20
2016-11-28T07:31:54.058Z,20
2016-11-28T07:32:54.063Z,20
2016-11-28T07:33:54.041Z,25
2016-11-28T07:34:54.026Z,25
2016-11-28T07:35:53.967Z,25
2016-11-28T07:36:53.976Z,25
2016-11-28T07:37:53.964Z,25
2016-11-28T07:38:53.967Z,30
2016-11-28T07:39:53.978Z,30
2016-11-28T07:40:54.030Z,30
2016-11-28T07:41:54.007Z,30
2016-11-28T07:42:53.965Z,30
2016-11-28T07:43:54.116Z,30
2016-11-28T07:44:54.205Z,35
2016-11-28T07:45:54.012Z,35
2016-11-28T07:46:54.238Z,35
2016-11-28T07:47:53.964Z,35
2016-11-28T07:48:53.927Z,35
2016-11-28T07:49:54.700Z,35
2016-11-28T07:50:54.001Z,40
2016-11-28T07:51:53.938Z,40
2016-11-28T07:52:54.042Z,40
2016-11-28T07:53:53.957Z,40
2016-11-28T07:54:54.010Z,40
2016-11-28T07:55:54.028Z,40
2016-11-28T07:56:53.989Z,45
2016-11-28T07:57:54.065Z,45
2016-11-28T07:58:53.961Z,45
2016-11-28T07:59:53.987Z,45
2016-11-28T08:00:54.021Z,45
2016-11-28T08:01:53.979Z,45
2016-11-28T08:02:54.012Z,45
2016-11-28T08:03:54.031Z,50
2016-11-28T08:04:54.057Z,50
2016-11-28T08:05:54.076Z,50
2016-11-28T08:06:53.954Z,50
2016-11-28T08:07:54.034Z,50
2016-11-28T08:08:53.956Z,50
2016-11-28T08:09:54.123Z,50
2016-11-28T08:10:54.029Z,55
2016-11-28T08:11:53.957Z,55
2016-11-28T08:12:54.297Z,55
2016-11-28T08:13:53.970Z,55
2016-11-28T08:14:54.012Z,55
2016-11-28T08:15:53.999Z,55
2016-11-28T08:16:54.009Z,55
2016-11-28T08:17:54.118Z,55
2016-11-28T08:18:53.952Z,60
2016-11-28T08:19:54.102Z,60
2016-11-28T08:20:53.953Z,60
2016-11-28T08:21:54.012Z,60
2016-11-28T08:22:54.071Z,60
2016-11-28T08:23:54.017Z,60
2016-11-28T08:24:54.009Z,60
2016-11-28T08:25:54.012Z,60
2016-11-28T08:26:54.136Z,65
2016-11-28T08:27:53.971Z,65
2016-11-28T08:28:53.959Z,65
2016-11-28T08:29:54.060Z,65
2016-11-28T08:30:54.046Z,65
2016-11-28T08:31:54.003Z,65
2016-11-28T08:32:54.001Z,65
2016-11-28T08:33:53.972Z,65
2016-11-28T08:34:53.979Z,65
2016-11-28T08:35:53.971Z,65
2016-11-28T08:36:53.952Z,65
2016-11-28T08:37:53.965Z,70
2016-11-28T08:38:53.967Z,70
2016-11-28T08:39:54.003Z,70
2016-11-28T08:40:53.989Z,70
2016-11-28T08:41:53.998Z,70
2016-11-28T08:42:54.095Z,70
2016-11-28T08:43:54.007Z,70
2016-11-28T08:44:54.029Z,70
2016-11-28T08:45:53.973Z,70
2016-11-28T08:46:53.986Z,70
2016-11-28T08:47:53.957Z,70
2016-11-28T08:48:53.989Z,70
2016-11-28T08:49:53.987Z,70
2016-11-28T08:50:53.994Z,75
2016-11-28T08:51:54.008Z,75
2016-11-28T08:52:53.960Z,75
2016-11-28T08:53:53.992Z,75
2016-11-28T08:54:54.003Z,75
2016-11-28T08:55:53.949Z,75
2016-11-28T08:56:53.946Z,75
2016-11-28T08:57:53.989Z,75
2016-11-28T08:58:53.968Z,75
2016-11-28T08:59:53.977Z,75
2016-11-28T09:00:53.967Z,75
2016-11-28T09:01:53.963Z,75
2016-11-28T09:02:54.009Z,75
2016-11-28T09:03:53.987Z,75
2016-11-28T09:04:54.023Z,80
2016-11-28T09:05:54.000Z,80
2016-11-28T09:06:53.989Z,80
2016-11-28T09:07:53.982Z,80
2016-11-28T09:08:53.994Z,80
2016-11-28T09:09:54.057Z,80
2016-11-28T09:10:53.977Z,80
2016-11-28T09:11:53.989Z,80
2016-11-28T09:12:53.974Z,80
2016-11-28T09:13:54.016Z,80
2016-11-28T09:14:54.049Z,80
2016-11-28T09:15:54.023Z,80
2016-11-28T09:16:53.988Z,80
2016-11-28T09:17:53.983Z,80
2016-11-28T09:18:54.058Z,80
2016-11-28T09:19:54.059Z,80
2016-11-28T09:20:53.999Z,80
2016-11-28T09:21:53.979Z,80
2016-11-28T09:22:54.014Z,80
2016-11-28T09:23:54.000Z,85
2016-11-28T09:24:54.009Z,80
2016-11-28T09:25:54.006Z,85
2016-11-28T09:26:53.964Z,85
2016-11-28T09:27:54.007Z,85
2016-11-28T09:28:54.023Z,85
2016-11-28T09:29:53.990Z,85
2016-11-28T09:30:53.983Z,85
2016-11-28T09:31:54.014Z,85
2016-11-28T09:32:54.008Z,85
2016-11-28T09:33:53.954Z,85
2016-11-28T09:34:53.970Z,85
2016-11-28T09:35:53.999Z,85
2016-11-28T09:36:53.994Z,85
2016-11-28T09:37:54.011Z,85
2016-11-28T09:38:54.020Z,85
2016-11-28T09:39:54.051Z,85
2016-11-28T09:40:54.014Z,85
2016-11-28T09:41:53.992Z,85
2016-11-28T09:42:54.019Z,85
2016-11-28T09:43:54.393Z,85
2016-11-28T09:44:54.056Z,85
2016-11-28T09:45:54.064Z,85
2016-11-28T09:46:54.013Z,85
2016-11-28T09:47:54.023Z,85
2016-11-28T09:48:53.999Z,85
2016-11-28T09:49:54.033Z,85
2016-11-28T09:50:54.122Z,85
2016-11-28T09:51:54.058Z,90
2016-11-28T09:52:55.397Z,90
2016-11-28T09:53:54.017Z,90
2016-11-28T09:54:54.185Z,90
2016-11-28T09:55:54.003Z,90
2016-11-28T09:56:54.082Z,90
2016-11-28T09:57:54.097Z,90
2016-11-28T09:58:54.158Z,90
2016-11-28T09:59:54.099Z,90
2016-11-28T10:00:54.193Z,90
2016-11-28T10:01:54.289Z,90
2016-11-28T10:02:54.064Z,90
2016-11-28T10:03:54.230Z,90
2016-11-28T10:04:54.028Z,90
2016-11-28T10:05:54.225Z,90
2016-11-28T10:06:54.111Z,90
2016-11-28T10:07:54.479Z,90
2016-11-28T10:08:54.108Z,90
2016-11-28T10:09:54.556Z,90
2016-11-28T10:10:54.354Z,90
2016-11-28T10:11:54.207Z,90
2016-11-28T10:12:54.334Z,90
2016-11-28T10:13:54.287Z,90
2016-11-28T10:14:54.309Z,90
2016-11-28T10:15:54.249Z,90
2016-11-28T10:16:57.021Z,90
2016-11-28T10:17:54.259Z,90
2016-11-28T10:18:54.463Z,90
2016-11-28T10:19:55.141Z,90
2016-11-28T10:20:54.341Z,90
2016-11-28T10:21:54.369Z,90
2016-11-28T10:22:54.338Z,90
2016-11-28T10:23:54.440Z,90
2016-11-28T10:24:54.344Z,90
2016-11-28T10:25:54.753Z,90
2016-11-28T10:26:54.755Z,90
2016-11-28T10:27:55.223Z,90
2016-11-28T10:28:54.229Z,95
2016-11-28T10:29:54.738Z,95
2016-11-28T10:30:54.557Z,90
2016-11-28T10:31:54.246Z,95
2016-11-28T10:32:54.280Z,95
2016-11-28T10:33:54.674Z,95
2016-11-28T10:34:54.759Z,95
2016-11-28T10:35:54.288Z,95
2016-11-28T10:36:54.200Z,95
2016-11-28T10:37:54.439Z,95
2016-11-28T10:38:54.939Z,95
2016-11-28T10:39:54.368Z,95
2016-11-28T10:40:56.114Z,95
2016-11-28T10:41:54.208Z,95
2016-11-28T10:42:54.149Z,95
2016-11-28T10:43:54.910Z,95
2016-11-28T10:44:57.450Z,95
2016-11-28T10:45:54.159Z,95
2016-11-28T10:46:54.267Z,95
2016-11-28T10:47:54.253Z,95
2016-11-28T10:48:54.411Z,95
2016-11-28T10:49:54.161Z,95
2016-11-28T10:50:54.817Z,95
2016-11-28T10:51:54.893Z,95
2016-11-28T10:52:54.461Z,95
2016-11-28T10:54:03.524Z,95
2016-11-28T10:54:54.224Z,95
2016-11-28T10:55:54.528Z,95
2016-11-28T10:56:54.076Z,95
2016-11-28T10:57:54.874Z,95
2016-11-28T10:58:54.099Z,95
2016-11-28T10:59:54.519Z,95
2016-11-28T11:00:54.056Z,95
2016-11-28T11:01:54.725Z,95
2016-11-28T11:02:54.144Z,95
2016-11-28T11:03:54.198Z,95
2016-11-28T11:04:54.058Z,100
2016-11-28T11:05:54.031Z,95
2016-11-28T11:06:54.051Z,95
2016-11-28T11:07:54.066Z,95
2016-11-28T11:08:54.135Z,100
2016-11-28T11:09:54.270Z,100
2016-11-28T11:10:54.159Z,100
2016-11-28T11:11:54.063Z,100
2016-11-28T11:12:54.024Z,100
2016-11-28T11:13:54.023Z,100
2016-11-28T11:14:54.060Z,100
2016-11-28T11:15:54.079Z,95
2016-11-28T11:16:54.022Z,100
2016-11-28T11:17:54.052Z,95
2016-11-28T11:18:54.070Z,100
2016-11-28T11:19:54.075Z,95
2016-11-28T11:20:54.067Z,95
2016-11-28T11:21:54.059Z,95
2016-11-28T11:22:54.088Z,95
2016-11-28T11:23:54.054Z,95
2016-11-28T11:24:54.073Z,95
2016-11-28T11:25:54.066Z,95
2016-11-28T11:26:54.042Z,95
2016-11-28T11:27:54.054Z,95
2016-11-28T11:28:54.087Z,95
2016-11-28T11:29:54.064Z,95
2016-11-28T11:30:54.066Z,95
2016-11-28T11:31:54.061Z,95
2016-11-28T11:32:54.055Z,95
2016-11-28T11:33:54.084Z,95
2016-11-28T11:34:54.076Z,95
2016-11-28T11:35:54.077Z,95
2016-11-28T11:36:54.057Z,95
2016-11-28T11:37:54.066Z,95
2016-11-28T11:38:54.042Z,95
2016-11-28T11:39:54.142Z,95
2016-11-28T11:40:54.042Z,95
2016-11-28T11:41:54.061Z,95
2016-11-28T11:42:54.057Z,95
2016-11-28T11:43:54.141Z,95
2016-11-28T11:44:54.103Z,95
2016-11-28T11:45:54.147Z,95
2016-11-28T11:46:54.643Z,95
2016-11-28T11:47:54.040Z,95
2016-11-28T11:48:54.110Z,95
2016-11-28T11:49:54.088Z,95
2016-11-28T11:50:54.062Z,95
2016-11-28T11:51:54.078Z,95
2016-11-28T11:52:54.087Z,95
2016-11-28T11:53:54.113Z,95
2016-11-28T11:54:54.199Z,95
2016-11-28T11:55:54.100Z,95
2016-11-28T11:56:54.088Z,95
2016-11-28T11:57:54.097Z,95
2016-11-28T11:58:54.102Z,95
2016-11-28T11:59:54.100Z,95
2016-11-28T12:00:54.100Z,95
2016-11-28T12:01:54.085Z,95
2016-11-28T12:02:54.132Z,95
2016-11-28T12:03:54.183Z,95
2016-11-28T12:04:54.170Z,95
2016-11-28T12:05:54.099Z,95
2016-11-28T12:06:54.112Z,95
2016-11-28T12:07:54.105Z,95
2016-11-28T12:08:54.129Z,95
2016-11-28T12:09:54.120Z,95
2016-11-28T12:10:54.107Z,95
2016-11-28T12:11:54.072Z,95
2016-11-28T12:12:54.083Z,95
2016-11-28T12:13:54.091Z,95
2016-11-28T12:14:54.101Z,95
2016-11-28T12:15:54.149Z,95
2016-11-28T12:16:54.137Z,95
2016-11-28T12:17:54.099Z,95
2016-11-28T12:18:54.106Z,95
2016-11-28T12:19:54.158Z,95
2016-11-28T12:20:54.096Z,95
2016-11-28T12:21:54.102Z,95
2016-11-28T12:22:54.147Z,95
2016-11-28T12:23:54.123Z,95
2016-11-28T12:24:54.088Z,95
2016-11-28T12:25:54.085Z,95
2016-11-28T12:26:54.399Z,95
2016-11-28T12:27:54.088Z,95
2016-11-28T12:28:54.111Z,95
2016-11-28T12:29:54.173Z,95
2016-11-28T12:30:54.114Z,95
2016-11-28T12:31:54.108Z,95
2016-11-28T12:32:54.102Z,95
2016-11-28T12:33:54.088Z,95
2016-11-28T12:34:54.138Z,95
2016-11-28T12:35:54.114Z,95
2016-11-28T12:36:54.142Z,95
2016-11-28T12:37:54.241Z,95
2016-11-28T12:38:54.113Z,95
2016-11-28T12:39:54.153Z,95
2016-11-28T12:40:54.110Z,95
2016-11-28T12:41:54.150Z,95
2016-11-28T12:42:54.227Z,95
2016-11-28T12:43:54.153Z,95
2016-11-28T12:44:54.150Z,95
2016-11-28T12:45:54.148Z,95
2016-11-28T12:46:54.120Z,95
2016-11-28T12:47:54.102Z,95
2016-11-28T12:48:54.148Z,95
2016-11-28T12:49:54.142Z,95
2016-11-28T12:50:54.120Z,90
2016-11-28T12:51:54.105Z,90
2016-11-28T12:52:54.103Z,90
2016-11-28T12:53:54.163Z,90
2016-11-28T12:54:54.190Z,90
2016-11-28T12:55:54.123Z,90
2016-11-28T12:56:54.106Z,90
2016-11-28T12:57:54.113Z,90
2016-11-28T12:58:54.092Z,90
2016-11-28T12:59:54.156Z,90
2016-11-28T13:00:56.515Z,90
2016-11-28T13:01:55.574Z,90
2016-11-28T13:02:54.502Z,90
2016-11-28T13:03:54.131Z,90
2016-11-28T13:04:54.156Z,90
2016-11-28T13:05:54.465Z,90
2016-11-28T13:06:54.548Z,90
2016-11-28T13:07:54.821Z,90
2016-11-28T13:08:54.488Z,90
2016-11-28T13:09:54.231Z,90
2016-11-28T13:10:54.139Z,90
2016-11-28T13:11:54.134Z,90
2016-11-28T13:12:54.126Z,90
2016-11-28T13:13:54.147Z,90
2016-11-28T13:14:54.225Z,85
2016-11-28T13:15:54.169Z,85
2016-11-28T13:16:55.006Z,85
2016-11-28T13:17:56.122Z,85
2016-11-28T13:18:54.720Z,85
2016-11-28T13:19:54.708Z,85
2016-11-28T13:20:54.198Z,85
2016-11-28T13:21:54.146Z,85
2016-11-28T13:22:54.172Z,85
2016-11-28T13:23:55.002Z,85
2016-11-28T13:24:54.615Z,85
2016-11-28T13:25:54.141Z,85
2016-11-28T13:26:54.276Z,85
2016-11-28T13:27:54.137Z,85
2016-11-28T13:28:55.381Z,85
2016-11-28T13:29:54.228Z,85
2016-11-28T13:30:57.751Z,85
2016-11-28T13:31:54.281Z,80
2016-11-28T13:32:54.167Z,80
2016-11-28T13:33:54.258Z,80
2016-11-28T13:34:54.417Z,80
2016-11-28T13:35:54.452Z,80
2016-11-28T13:36:54.182Z,80
2016-11-28T13:37:54.182Z,80
2016-11-28T13:38:54.166Z,80
2016-11-28T13:39:54.183Z,80
2016-11-28T13:40:54.190Z,80
2016-11-28T13:41:59.489Z,80
2016-11-28T13:42:54.860Z,80
2016-11-28T13:43:55.090Z,80
2016-11-28T13:44:54.477Z,80
2016-11-28T13:45:54.366Z,80
2016-11-28T13:46:54.251Z,80
2016-11-28T13:47:56.832Z,75
2016-11-28T13:48:54.182Z,75
2016-11-28T13:49:54.317Z,75
2016-11-28T13:50:54.205Z,75
2016-11-28T13:51:54.328Z,75
2016-11-28T13:52:54.153Z,75
2016-11-28T13:53:57.432Z,75
2016-11-28T13:54:54.170Z,75
2016-11-28T13:55:54.147Z,75
2016-11-28T13:56:54.677Z,75
2016-11-28T13:57:54.784Z,75
2016-11-28T13:58:54.173Z,70
2016-11-28T13:59:54.421Z,70
2016-11-28T14:00:54.850Z,70
2016-11-28T14:01:54.179Z,70
2016-11-28T14:02:55.006Z,70
2016-11-28T14:03:54.179Z,70
2016-11-28T14:04:54.200Z,70
2016-11-28T14:05:54.221Z,70
2016-11-28T14:06:54.238Z,70
2016-11-28T14:07:56.696Z,65
2016-11-28T14:08:54.741Z,65
2016-11-28T14:09:54.973Z,65
2016-11-28T14:10:54.847Z,65
2016-11-28T14:11:55.362Z,65
2016-11-28T14:12:54.190Z,65
2016-11-28T14:13:54.552Z,65
2016-11-28T14:14:54.455Z,65
2016-11-28T14:15:54.203Z,65
2016-11-28T14:16:54.663Z,60
2016-11-28T14:17:54.695Z,60
2016-11-28T14:18:54.244Z,60
2016-11-28T14:19:55.248Z,60
2016-11-28T14:20:54.237Z,60
2016-11-28T14:21:54.223Z,60
2016-11-28T14:22:54.383Z,60
2016-11-28T14:23:57.358Z,60
2016-11-28T14:24:54.966Z,55
2016-11-28T14:25:57.280Z,55
2016-11-28T14:26:54.315Z,55
2016-11-28T14:27:58.102Z,55
2016-11-28T14:29:07.825Z,55
2016-11-28T14:29:56.003Z,55
2016-11-28T14:30:54.214Z,50